createdAt,value
2022-10-13T00:01:12.063Z,4.70
2022-10-13T00:03:42.056Z,4.65
2022-10-13T00:06:11.195Z,4.50
2022-10-13T00:08:39.291Z,4.70
2022-10-13T00:11:13.548Z,4.20
2022-10-13T00:13:40.679Z,4.20
2022-10-13T00:16:08.296Z,4.00
2022-10-13T00:18:35.351Z,4.00
2022-10-13T00:21:08.176Z,4.22
2022-10-13T00:23:36.338Z,4.38
2022-10-13T00:26:08.639Z,3.90
2022-10-13T00:28:36.163Z,4.10
2022-10-13T00:31:03.578Z,4.10
2022-10-13T00:33:30.460Z,3.80
2022-10-13T00:35:57.216Z,4.40
2022-10-13T00:38:24.124Z,3.92
2022-10-13T00:40:54.661Z,3.90
2022-10-13T00:43:47.439Z,4.17
2022-10-13T00:46:15.200Z,4.05
2022-10-13T00:48:46.408Z,3.92
2022-10-13T00:51:16.141Z,3.80
2022-10-13T00:53:44.876Z,3.75
2022-10-13T00:56:15.204Z,3.87
2022-10-13T00:58:44.123Z,4.00
2022-10-13T01:01:11.607Z,3.80
2022-10-13T01:03:39.020Z,3.97
2022-10-13T01:06:07.283Z,4.20
2022-10-13T01:08:34.564Z,3.53
2022-10-13T01:11:21.231Z,3.72
2022-10-13T01:13:57.351Z,4.00
2022-10-13T01:16:35.643Z,3.55
2022-10-13T01:19:46.644Z,4.20
2022-10-13T01:22:40.970Z,4.20
2022-10-13T01:25:36.556Z,3.97
2022-10-13T01:28:46.496Z,3.72
2022-10-13T01:31:48.544Z,3.58
2022-10-13T01:34:29.699Z,4.00
2022-10-13T01:37:12.254Z,3.73
2022-10-13T01:39:54.208Z,4.07
2022-10-13T01:42:39.579Z,3.70
2022-10-13T01:45:16.424Z,4.32
2022-10-13T01:47:44.226Z,3.80
2022-10-13T01:50:12.198Z,4.10
2022-10-13T01:52:40.236Z,4.57
2022-10-13T01:55:10.700Z,4.00
2022-10-13T01:57:40.035Z,4.00
2022-10-13T02:00:17.218Z,4.10
2022-10-13T02:02:43.916Z,4.10
2022-10-13T02:05:26.478Z,4.25
2022-10-13T02:08:01.819Z,4.60
2022-10-13T02:10:45.780Z,4.13
2022-10-13T02:13:17.996Z,4.60
2022-10-13T02:15:49.399Z,4.17
2022-10-13T02:18:21.474Z,4.72
2022-10-13T02:20:48.942Z,4.70
2022-10-13T02:23:18.668Z,5.00
2022-10-13T02:25:47.607Z,4.78
2022-10-13T02:28:16.270Z,4.33
2022-10-13T02:30:45.397Z,4.78
2022-10-13T02:33:13.869Z,4.45
2022-10-13T02:35:41.361Z,4.93
2022-10-13T02:38:09.249Z,4.65
2022-10-13T02:40:36.007Z,4.80
2022-10-13T02:43:02.912Z,4.85
2022-10-13T02:45:29.783Z,4.80
2022-10-13T02:47:56.831Z,5.22
2022-10-13T02:50:23.744Z,5.28
2022-10-13T02:52:50.797Z,4.93
2022-10-13T02:55:17.923Z,5.10
2022-10-13T02:57:45.813Z,5.07
2022-10-13T03:00:14.052Z,5.53
2022-10-13T03:02:40.803Z,5.10
2022-10-13T03:05:08.064Z,5.23
2022-10-13T03:07:35.041Z,4.90
2022-10-13T03:10:02.106Z,5.10
2022-10-13T03:12:28.891Z,5.13
2022-10-13T03:14:55.726Z,5.03
2022-10-13T03:17:23.324Z,5.37
2022-10-13T03:19:50.174Z,5.65
2022-10-13T03:22:18.370Z,5.45
2022-10-13T03:24:45.642Z,5.55
2022-10-13T03:27:12.563Z,5.90
2022-10-13T03:29:39.404Z,5.33
2022-10-13T03:32:06.216Z,5.60
2022-10-13T03:34:33.036Z,5.60
2022-10-13T03:36:59.876Z,5.70
2022-10-13T03:39:32.298Z,5.68
2022-10-13T03:41:59.085Z,5.17
2022-10-13T03:44:25.934Z,5.57
2022-10-13T03:46:52.684Z,5.88
2022-10-13T03:49:19.567Z,6.20
2022-10-13T03:51:46.436Z,6.18
2022-10-13T03:54:14.115Z,5.57
2022-10-13T03:56:41.107Z,5.90
2022-10-13T03:59:07.958Z,5.97
2022-10-13T04:01:34.825Z,6.20
2022-10-13T04:04:02.366Z,6.25
2022-10-13T04:06:30.338Z,6.30
2022-10-13T04:08:58.422Z,6.30
2022-10-13T04:11:25.317Z,5.85
2022-10-13T04:13:56.863Z,5.72
2022-10-13T04:16:27.261Z,6.32
2022-10-13T04:19:01.982Z,6.53
2022-10-13T04:21:30.759Z,6.85
2022-10-13T04:23:59.125Z,7.47
2022-10-13T04:26:29.171Z,8.65
2022-10-13T04:28:56.501Z,7.25
2022-10-13T04:31:24.401Z,7.07
2022-10-13T04:33:52.343Z,7.90
2022-10-13T04:36:19.894Z,8.30
2022-10-13T04:38:50.230Z,7.40
2022-10-13T04:41:18.543Z,7.47
2022-10-13T04:43:49.003Z,7.67
2022-10-13T04:46:22.264Z,7.15
2022-10-13T04:48:49.873Z,7.40
2022-10-13T04:51:19.930Z,7.03
2022-10-13T04:53:47.657Z,6.75
2022-10-13T04:56:17.883Z,6.63
2022-10-13T04:58:46.450Z,7.18
2022-10-13T05:01:21.206Z,8.63
2022-10-13T05:03:51.980Z,7.95
2022-10-13T05:06:24.557Z,8.25
2022-10-13T05:08:55.487Z,8.23
2022-10-13T05:11:23.323Z,8.68
2022-10-13T05:13:50.313Z,8.88
2022-10-13T05:16:19.040Z,8.45
2022-10-13T05:18:45.984Z,9.00
2022-10-13T05:21:15.489Z,8.33
2022-10-13T05:23:42.836Z,8.30
2022-10-13T05:26:15.609Z,8.15
2022-10-13T05:28:43.801Z,7.88
2022-10-13T05:31:19.370Z,8.05
2022-10-13T05:33:47.162Z,7.37
2022-10-13T05:36:23.112Z,7.82
2022-10-13T05:38:51.804Z,7.70
2022-10-13T05:41:19.155Z,8.27
2022-10-13T05:43:46.132Z,7.70
2022-10-13T05:46:12.923Z,7.53
2022-10-13T05:48:40.356Z,7.15
2022-10-13T05:51:15.793Z,7.25
2022-10-13T05:53:51.087Z,8.10
2022-10-13T05:56:24.558Z,8.88
2022-10-13T05:58:55.946Z,10.40
2022-10-13T06:01:26.674Z,9.90
2022-10-13T06:03:56.308Z,10.75
2022-10-13T06:06:29.037Z,10.48
2022-10-13T06:08:58.458Z,10.30
2022-10-13T06:11:25.322Z,9.87
2022-10-13T06:13:52.147Z,10.40
2022-10-13T06:16:19.077Z,9.98
2022-10-13T06:18:47.663Z,11.98
2022-10-13T06:21:14.698Z,10.85
2022-10-13T06:23:41.525Z,10.83
2022-10-13T06:26:08.648Z,10.73
2022-10-13T06:28:37.294Z,10.70
2022-10-13T06:31:06.276Z,10.60
2022-10-13T06:33:34.348Z,10.52
2022-10-13T06:36:02.816Z,10.23
2022-10-13T06:38:29.664Z,10.98
2022-10-13T06:41:03.755Z,11.45
2022-10-13T06:43:39.595Z,10.65
2022-10-13T06:46:10.277Z,10.65
2022-10-13T06:48:37.249Z,10.17
2022-10-13T06:51:09.783Z,10.10
2022-10-13T06:53:36.857Z,10.82
2022-10-13T06:56:06.232Z,11.57
2022-10-13T06:58:35.454Z,10.32
2022-10-13T07:01:02.524Z,10.77
2022-10-13T07:03:29.428Z,12.05
2022-10-13T07:06:01.835Z,12.52
2022-10-13T07:08:28.682Z,11.43
2022-10-13T07:10:55.523Z,12.25
2022-10-13T07:15:53.999Z,12.82
2022-10-13T07:18:20.793Z,12.60
2022-10-13T07:20:47.602Z,12.90
2022-10-13T07:23:14.436Z,12.93
2022-10-13T07:25:41.873Z,12.87
2022-10-13T07:28:08.885Z,11.98
2022-10-13T07:30:35.843Z,11.13
2022-10-13T07:33:02.573Z,12.35
2022-10-13T07:35:30.878Z,11.63
2022-10-13T07:37:58.102Z,11.40
2022-10-13T07:40:24.990Z,11.95
2022-10-13T07:42:51.747Z,11.60
2022-10-13T07:45:18.517Z,11.60
2022-10-13T07:47:45.258Z,10.73
2022-10-13T07:50:12.118Z,10.50
2022-10-13T07:52:38.979Z,10.88
2022-10-13T07:55:06.608Z,12.15
2022-10-13T07:57:33.542Z,10.75
2022-10-13T08:00:00.488Z,12.07
2022-10-13T08:02:27.381Z,10.93
2022-10-13T08:04:54.121Z,11.95
2022-10-13T08:07:21.204Z,11.20
2022-10-13T08:09:49.617Z,10.95
2022-10-13T08:12:16.536Z,10.98
2022-10-13T08:14:43.608Z,11.47
2022-10-13T08:17:10.765Z,10.30
2022-10-13T08:19:37.453Z,11.30
2022-10-13T08:22:07.844Z,10.75
2022-10-13T08:24:37.231Z,10.93
2022-10-13T08:27:04.184Z,10.57
2022-10-13T08:29:32.518Z,11.85
2022-10-13T08:31:59.316Z,10.57
2022-10-13T08:34:26.073Z,10.75
2022-10-13T08:36:53.914Z,10.30
2022-10-13T08:39:21.900Z,11.27
2022-10-13T08:41:50.698Z,12.15
2022-10-13T08:47:28.011Z,12.70
2022-10-13T08:50:03.769Z,11.95
2022-10-13T08:52:47.794Z,12.30
2022-10-13T08:55:41.332Z,11.73
2022-10-13T08:58:24.823Z,11.80
2022-10-13T09:01:10.463Z,12.43
2022-10-13T09:04:08.352Z,12.50
2022-10-13T09:06:49.942Z,11.73
2022-10-13T09:09:17.081Z,12.18
2022-10-13T09:11:46.686Z,11.65
2022-10-13T09:14:22.028Z,12.52
2022-10-13T09:16:50.116Z,12.70
2022-10-13T09:19:25.202Z,12.07
2022-10-13T09:21:57.635Z,12.57
2022-10-13T09:24:26.814Z,11.48
2022-10-13T09:27:11.740Z,15.35
2022-10-13T09:29:39.817Z,12.00
2022-10-13T09:32:14.919Z,11.47
2022-10-13T09:34:41.958Z,11.73
2022-10-13T09:37:23.213Z,12.07
2022-10-13T09:40:20.631Z,11.40
2022-10-13T09:42:54.232Z,11.77
2022-10-13T09:45:24.661Z,12.37
2022-10-13T09:48:20.383Z,11.85
2022-10-13T09:50:53.412Z,12.05
2022-10-13T09:53:33.597Z,11.95
2022-10-13T09:56:23.716Z,11.00
2022-10-13T09:59:21.241Z,11.07
2022-10-13T10:01:49.235Z,11.52
2022-10-13T10:04:37.641Z,11.27
2022-10-13T10:07:18.975Z,11.23
2022-10-13T10:09:51.317Z,11.20
2022-10-13T10:12:27.562Z,12.20
2022-10-13T10:14:55.589Z,11.27
2022-10-13T10:17:42.641Z,11.15
2022-10-13T10:20:31.098Z,11.75
2022-10-13T10:23:23.184Z,12.85
2022-10-13T10:25:54.108Z,11.63
2022-10-13T10:28:44.332Z,11.57
2022-10-13T10:31:19.208Z,12.38
2022-10-13T10:34:15.490Z,12.52
2022-10-13T10:36:52.371Z,12.18
2022-10-13T10:39:40.295Z,12.17
2022-10-13T10:42:29.971Z,12.95
2022-10-13T10:45:01.831Z,11.80
2022-10-13T10:47:40.032Z,12.90
2022-10-13T10:50:08.183Z,15.48
2022-10-13T10:52:49.815Z,12.00
2022-10-13T10:55:24.626Z,11.07
2022-10-13T10:57:57.291Z,12.02
2022-10-13T11:00:24.877Z,11.77
2022-10-13T11:03:08.423Z,11.88
2022-10-13T11:05:58.879Z,11.00
2022-10-13T11:08:37.715Z,11.27
2022-10-13T11:11:26.789Z,12.75
2022-10-13T11:14:03.139Z,11.38
2022-10-13T11:16:53.010Z,11.63
2022-10-13T11:19:33.812Z,11.77
2022-10-13T11:22:00.527Z,11.18
2022-10-13T11:24:42.086Z,11.73
2022-10-13T11:27:16.911Z,11.60
2022-10-13T11:29:43.643Z,11.60
2022-10-13T11:32:25.778Z,10.77
2022-10-13T11:35:19.684Z,11.07
2022-10-13T11:38:06.867Z,10.88
2022-10-13T11:40:37.814Z,10.77
2022-10-13T11:43:10.313Z,10.75
2022-10-13T11:45:45.877Z,11.07
2022-10-13T11:48:54.220Z,10.73
2022-10-13T11:51:52.746Z,10.40
2022-10-13T11:54:19.509Z,10.15
2022-10-13T11:56:52.751Z,10.95
2022-10-13T11:59:27.299Z,9.87
2022-10-13T12:02:18.724Z,10.27
2022-10-13T12:05:00.729Z,9.55
2022-10-13T12:07:36.093Z,9.55
2022-10-13T12:10:07.474Z,9.35
2022-10-13T12:12:34.748Z,9.57
2022-10-13T12:15:05.916Z,10.13
2022-10-13T12:17:35.503Z,10.13
2022-10-13T12:20:21.151Z,9.50
2022-10-13T12:22:49.734Z,10.50
2022-10-13T12:25:25.610Z,9.90
2022-10-13T12:28:00.242Z,9.50
2022-10-13T12:30:36.702Z,10.55
2022-10-13T12:33:18.083Z,10.05
2022-10-13T12:35:45.049Z,10.20
2022-10-13T12:38:18.854Z,10.47
2022-10-13T12:40:48.384Z,10.48
2022-10-13T12:43:24.704Z,10.68
2022-10-13T12:45:52.032Z,10.15
2022-10-13T12:48:36.084Z,11.30
2022-10-13T12:51:16.295Z,9.50
2022-10-13T12:53:44.634Z,9.73
2022-10-13T12:56:30.888Z,9.43
2022-10-13T12:58:58.879Z,9.77
2022-10-13T13:01:32.539Z,9.35
2022-10-13T13:04:38.606Z,9.73
2022-10-13T13:07:06.394Z,9.82
2022-10-13T13:09:36.848Z,10.70
2022-10-13T13:12:10.762Z,10.32
2022-10-13T13:14:41.912Z,10.80
2022-10-13T13:17:38.488Z,10.03
2022-10-13T13:20:20.410Z,11.20
2022-10-13T13:22:47.405Z,9.88
2022-10-13T13:25:15.451Z,11.13
2022-10-13T13:27:42.357Z,10.77
2022-10-13T13:30:14.828Z,10.50
2022-10-13T13:32:41.686Z,11.40
2022-10-13T13:35:09.356Z,11.40
2022-10-13T13:37:43.217Z,10.60
2022-10-13T13:40:19.494Z,10.45
2022-10-13T13:42:46.411Z,11.17
2022-10-13T13:45:15.058Z,11.18
2022-10-13T13:47:42.247Z,11.45
2022-10-13T13:50:33.225Z,11.27
2022-10-13T13:53:00.171Z,11.77
2022-10-13T13:55:27.852Z,11.27
2022-10-13T13:57:54.644Z,12.15
2022-10-13T14:00:21.960Z,12.65
2022-10-13T14:02:56.298Z,11.68
2022-10-13T14:05:23.641Z,12.50
2022-10-13T14:07:54.001Z,11.33
2022-10-13T14:10:21.864Z,12.68
2022-10-13T14:12:48.602Z,12.02
2022-10-13T14:15:15.695Z,12.05
2022-10-13T14:17:42.604Z,11.98
2022-10-13T14:20:09.963Z,12.67
2022-10-13T14:22:38.941Z,11.65
2022-10-13T14:25:07.328Z,11.85
2022-10-13T14:27:35.331Z,11.50
2022-10-13T14:30:02.491Z,12.25
2022-10-13T14:32:29.296Z,11.33
2022-10-13T14:34:56.097Z,13.13
2022-10-13T14:37:23.578Z,12.00
2022-10-13T14:39:51.937Z,12.52
2022-10-13T14:42:18.652Z,11.88
2022-10-13T14:44:45.448Z,11.73
2022-10-13T14:47:12.341Z,12.43
2022-10-13T14:49:39.592Z,12.38
2022-10-13T14:52:06.427Z,12.05
2022-10-13T14:54:33.187Z,12.57
2022-10-13T14:56:59.996Z,12.13
2022-10-13T14:59:27.008Z,12.13
2022-10-13T15:01:53.775Z,12.48
2022-10-13T15:04:20.605Z,11.90
2022-10-13T15:06:47.318Z,12.15
2022-10-13T15:09:14.143Z,12.00
2022-10-13T15:11:41.005Z,12.35
2022-10-13T15:14:07.915Z,12.25
2022-10-13T15:16:34.734Z,11.88
2022-10-13T15:19:01.483Z,12.60
2022-10-13T15:21:30.084Z,12.87
2022-10-13T15:23:57.018Z,13.60
2022-10-13T15:26:23.816Z,13.38
2022-10-13T15:28:53.052Z,12.05
2022-10-13T15:31:22.287Z,12.93
2022-10-13T15:33:51.607Z,12.27
2022-10-13T15:36:22.188Z,12.18
2022-10-13T15:38:49.081Z,12.73
2022-10-13T15:41:16.022Z,12.30
2022-10-13T15:43:43.042Z,12.63
2022-10-13T15:46:14.790Z,12.60
2022-10-13T15:48:41.535Z,12.68
2022-10-13T15:51:20.050Z,13.77
2022-10-13T15:53:47.871Z,12.80
2022-10-13T15:56:16.823Z,12.98
2022-10-13T15:58:43.646Z,12.40
2022-10-13T16:01:12.467Z,13.57
2022-10-13T16:03:39.769Z,13.85
2022-10-13T16:06:09.386Z,13.25
2022-10-13T16:08:37.246Z,13.13
2022-10-13T16:11:12.251Z,14.03
2022-10-13T16:13:39.629Z,13.10
2022-10-13T16:16:07.059Z,13.90
2022-10-13T16:18:38.469Z,13.15
2022-10-13T16:21:31.779Z,14.05
2022-10-13T16:23:59.342Z,13.17
2022-10-13T16:26:26.174Z,13.63
2022-10-13T16:28:56.370Z,14.80
2022-10-13T16:31:24.381Z,16.52
2022-10-13T16:33:51.074Z,17.23
2022-10-13T16:36:19.625Z,18.50
2022-10-13T16:38:52.420Z,17.92
2022-10-13T16:41:19.208Z,16.63
2022-10-13T16:43:46.768Z,15.73
2022-10-13T16:46:15.847Z,15.02
2022-10-13T16:48:44.064Z,14.23
2022-10-13T16:51:22.467Z,14.90
2022-10-13T16:54:07.557Z,14.70
2022-10-13T16:56:34.476Z,14.60
2022-10-13T16:59:03.395Z,15.15
2022-10-13T17:01:31.494Z,14.87
2022-10-13T17:03:58.418Z,15.10
2022-10-13T17:06:27.505Z,13.02
2022-10-13T17:08:55.343Z,13.82
2022-10-13T17:11:27.973Z,15.02
2022-10-13T17:13:56.981Z,15.47
2022-10-13T17:16:41.505Z,14.35
2022-10-13T17:19:10.761Z,13.02
2022-10-13T17:21:37.770Z,14.20
2022-10-13T17:24:08.161Z,14.20
2022-10-13T17:26:35.406Z,14.40
2022-10-13T17:29:02.998Z,15.50
2022-10-13T17:31:31.056Z,14.85
2022-10-13T17:33:59.943Z,14.43
2022-10-13T17:36:30.520Z,14.57
2022-10-13T17:39:04.740Z,13.53
2022-10-13T17:41:33.080Z,13.10
2022-10-13T17:44:01.335Z,12.45
2022-10-13T17:46:36.979Z,11.85
2022-10-13T17:49:15.642Z,11.77
2022-10-13T17:51:46.809Z,11.13
2022-10-13T17:54:16.971Z,11.07
2022-10-13T17:56:45.038Z,10.85
2022-10-13T17:59:18.410Z,11.45
2022-10-13T18:01:47.285Z,10.70
2022-10-13T18:04:19.383Z,11.63
2022-10-13T18:06:50.483Z,10.90
2022-10-13T18:09:27.080Z,10.70
2022-10-13T18:11:58.109Z,10.70
2022-10-13T18:14:27.129Z,11.52
2022-10-13T18:16:56.992Z,10.57
2022-10-13T18:19:25.799Z,10.90
2022-10-13T18:21:53.756Z,10.77
2022-10-13T18:24:22.047Z,10.40
2022-10-13T18:26:52.918Z,10.63
2022-10-13T18:29:24.978Z,10.60
2022-10-13T18:31:58.626Z,11.23
2022-10-13T18:34:30.261Z,10.73
2022-10-13T18:37:02.188Z,10.52
2022-10-13T18:39:31.906Z,10.07
2022-10-13T18:42:03.920Z,10.53
2022-10-13T18:44:38.045Z,10.85
2022-10-13T18:47:08.439Z,11.55
2022-10-13T18:49:37.243Z,11.00
2022-10-13T18:52:05.563Z,11.00
2022-10-13T18:54:36.994Z,11.23
2022-10-13T18:57:07.184Z,10.95
2022-10-13T18:59:35.103Z,10.80
2022-10-13T19:02:03.387Z,11.10
2022-10-13T19:04:32.005Z,10.80
2022-10-13T19:07:00.300Z,11.60
2022-10-13T19:09:28.164Z,11.27
2022-10-13T19:11:56.818Z,11.00
2022-10-13T19:14:24.858Z,11.85
2022-10-13T19:16:56.064Z,11.18
2022-10-13T19:19:29.291Z,11.77
2022-10-13T19:21:58.280Z,12.00
2022-10-13T19:24:26.394Z,11.80
2022-10-13T19:26:54.245Z,12.55
2022-10-13T19:29:22.171Z,12.60
2022-10-13T19:31:49.422Z,13.17
2022-10-13T19:34:18.357Z,13.70
2022-10-13T19:36:47.564Z,13.80
2022-10-13T19:39:24.335Z,13.52
2022-10-13T19:41:54.322Z,14.55
2022-10-13T19:44:23.957Z,14.30
2022-10-13T19:46:53.055Z,13.63
2022-10-13T19:49:23.650Z,14.75
2022-10-13T19:51:53.807Z,13.90
2022-10-13T19:54:22.276Z,13.77
2022-10-13T19:56:50.953Z,14.03
2022-10-13T19:59:19.996Z,14.00
2022-10-13T20:01:47.291Z,13.82
2022-10-13T20:04:17.228Z,14.38
2022-10-13T20:06:45.410Z,13.57
2022-10-13T20:09:13.353Z,13.33
2022-10-13T20:11:40.698Z,12.50
2022-10-13T20:14:11.083Z,12.80
2022-10-13T20:16:38.471Z,12.77
2022-10-13T20:19:06.647Z,12.15
2022-10-13T20:21:34.590Z,12.53
2022-10-13T20:24:01.534Z,12.30
2022-10-13T20:26:28.640Z,12.85
2022-10-13T20:28:55.992Z,11.73
2022-10-13T20:31:23.253Z,11.95
2022-10-13T20:33:57.860Z,12.33
2022-10-13T20:36:33.667Z,13.18
2022-10-13T20:39:04.411Z,12.95
2022-10-13T20:41:32.323Z,13.20
2022-10-13T20:44:00.584Z,12.52
2022-10-13T20:46:29.895Z,12.03
2022-10-13T20:49:13.244Z,12.43
2022-10-13T20:51:42.114Z,12.45
2022-10-13T20:54:10.196Z,12.23
2022-10-13T20:56:37.265Z,12.93
2022-10-13T20:59:09.594Z,13.30
2022-10-13T21:01:37.169Z,13.20
2022-10-13T21:04:04.859Z,13.77
2022-10-13T21:06:31.851Z,14.13
2022-10-13T21:09:00.453Z,14.50
2022-10-13T21:11:27.279Z,13.47
2022-10-13T21:13:54.072Z,13.50
2022-10-13T21:16:26.267Z,15.57
2022-10-13T21:18:54.277Z,15.13
2022-10-13T21:21:23.981Z,13.55
2022-10-13T21:23:52.312Z,14.03
2022-10-13T21:26:21.898Z,15.13
2022-10-13T21:28:49.484Z,14.32
2022-10-13T21:31:17.901Z,14.50
2022-10-13T21:33:44.943Z,14.15
2022-10-13T21:36:18.633Z,13.60
2022-10-13T21:38:46.959Z,13.65
2022-10-13T21:41:14.994Z,13.23
2022-10-13T21:43:41.935Z,13.02
2022-10-13T21:46:13.152Z,12.40
2022-10-13T21:48:43.282Z,13.13
2022-10-13T21:51:21.732Z,12.68
2022-10-13T21:53:57.105Z,13.18
2022-10-13T21:56:25.708Z,13.20
2022-10-13T21:58:53.535Z,13.15
2022-10-13T22:01:21.166Z,12.63
2022-10-13T22:03:48.952Z,12.90
2022-10-13T22:06:19.847Z,13.68
2022-10-13T22:08:49.352Z,13.35
2022-10-13T22:11:22.217Z,13.07
2022-10-13T22:13:48.976Z,13.23
2022-10-13T22:16:27.431Z,12.95
2022-10-13T22:18:55.997Z,13.25
2022-10-13T22:21:28.138Z,13.20
2022-10-13T22:24:00.928Z,13.48
2022-10-13T22:26:30.751Z,13.60
2022-10-13T22:28:59.285Z,12.95
2022-10-13T22:31:26.867Z,12.85
2022-10-13T22:33:54.277Z,12.73
2022-10-13T22:36:23.013Z,12.60
2022-10-13T22:38:51.571Z,12.40
2022-10-13T22:41:19.662Z,12.95
2022-10-13T22:43:55.820Z,12.35
2022-10-13T22:46:25.532Z,11.30
2022-10-13T22:48:52.535Z,12.07
2022-10-13T22:51:22.284Z,12.97
2022-10-13T22:53:50.113Z,12.80
2022-10-13T22:56:28.872Z,12.15
2022-10-13T22:59:01.431Z,12.30
2022-10-13T23:01:28.891Z,12.15
2022-10-13T23:03:57.541Z,12.23
2022-10-13T23:06:30.028Z,12.27
2022-10-13T23:09:00.523Z,11.88
2022-10-13T23:11:27.802Z,12.15
2022-10-13T23:13:55.663Z,12.07
2022-10-13T23:16:24.221Z,11.90
2022-10-13T23:18:52.305Z,11.68
2022-10-13T23:21:28.124Z,13.07
2022-10-13T23:23:57.456Z,13.13
2022-10-13T23:26:24.664Z,11.80
2022-10-13T23:28:52.601Z,12.07
2022-10-13T23:31:19.444Z,12.40
2022-10-13T23:33:46.544Z,12.65
2022-10-13T23:36:16.484Z,12.45
2022-10-13T23:38:48.559Z,12.70
2022-10-13T23:41:16.439Z,13.03
2022-10-13T23:43:43.845Z,12.45
2022-10-13T23:46:11.139Z,12.77
2022-10-13T23:48:39.597Z,12.82
2022-10-13T23:51:12.849Z,12.07
2022-10-13T23:53:40.728Z,12.20
2022-10-13T23:56:09.248Z,12.75
2022-10-13T23:58:37.472Z,12.57
